Time;durP1;ratioP1;P1;durP2;ratioP2;P2;SDS_P1;SDS_P2;PMS_P1;PMS_P2;Temp;Humidity;BMP_temperature;BMP_pressure;BME280_temperature;BME280_humidity;BME280_pressure;Samples;Min_cycle;Max_cycle;Signal;HPM_P1;HPM_P2
2023/05/14 00:00:19;;;;;;;12.75;10.15;;;11.80;99.90;;;;;;5068394;28;20058;-78
2023/05/14 00:02:45;;;;;;;16.90;10.35;;;11.80;99.90;;;;;;5083620;28;20052;-78
2023/05/14 00:05:11;;;;;;;14.65;10.23;;;11.80;99.90;;;;;;5067807;28;20040;-78
2023/05/14 00:07:36;;;;;;;15.55;9.68;;;11.80;99.90;;;;;;5080677;28;20040;-78
2023/05/14 00:10:02;;;;;;;13.90;9.85;;;11.80;99.90;;;;;;5083020;28;20047;-78
2023/05/14 00:12:28;;;;;;;16.23;10.13;;;11.70;99.90;;;;;;5066310;28;20108;-78
2023/05/14 00:14:55;;;;;;;15.10;10.73;;;11.70;99.90;;;;;;5066737;28;20158;-78
2023/05/14 00:17:20;;;;;;;13.55;10.07;;;11.70;99.90;;;;;;5075206;28;20059;-78
2023/05/14 00:19:46;;;;;;;15.57;9.60;;;11.70;99.90;;;;;;5095613;28;20509;-78
2023/05/14 00:22:12;;;;;;;12.82;9.75;;;11.70;99.90;;;;;;5091463;28;20093;-78
2023/05/14 00:24:37;;;;;;;13.90;9.63;;;11.70;99.90;;;;;;5068162;28;20036;-78
2023/05/14 00:27:03;;;;;;;18.23;11.13;;;11.70;99.90;;;;;;5072064;28;20060;-78
2023/05/14 00:29:29;;;;;;;14.45;9.82;;;11.60;99.90;;;;;;5087360;28;20081;-78
2023/05/14 00:31:55;;;;;;;13.05;9.90;;;11.60;99.90;;;;;;5089295;28;20040;-78
2023/05/14 00:34:21;;;;;;;15.15;10.68;;;11.60;99.90;;;;;;5088724;28;20048;-78
2023/05/14 00:36:46;;;;;;;15.52;11.02;;;11.60;99.90;;;;;;5087856;28;20448;-78
2023/05/14 00:39:12;;;;;;;11.32;9.68;;;11.60;99.90;;;;;;5068467;28;20120;-78
2023/05/14 00:41:38;;;;;;;15.82;10.50;;;11.60;99.90;;;;;;5053632;28;20051;-78
2023/05/14 00:44:04;;;;;;;14.65;10.90;;;11.60;99.90;;;;;;5053847;28;20504;-78
2023/05/14 00:46:30;;;;;;;17.38;9.40;;;11.90;99.90;;;;;;5087639;28;20047;-78
2023/05/14 00:48:57;;;;;;;16.38;10.93;;;11.50;99.90;;;;;;5071331;28;20060;-78
2023/05/14 00:51:23;;;;;;;14.25;9.38;;;11.50;99.90;;;;;;5090615;28;20039;-78
2023/05/14 00:53:49;;;;;;;13.93;10.27;;;11.50;99.90;;;;;;5070180;28;20047;-78
2023/05/14 00:56:15;;;;;;;15.07;10.35;;;11.30;99.90;;;;;;5091015;28;20048;-78
2023/05/14 00:58:42;;;;;;;15.30;10.70;;;11.50;99.90;;;;;;5089222;28;20043;-78
2023/05/14 01:01:08;;;;;;;12.60;10.35;;;11.60;99.90;;;;;;5091177;28;20055;-78
2023/05/14 01:03:34;;;;;;;14.68;10.45;;;11.50;99.90;;;;;;5089859;28;20070;-78
2023/05/14 01:06:09;;;;;;;15.45;10.20;;;11.40;99.90;;;;;;5087771;28;20101;-78
2023/05/14 01:08:53;;;;;;;18.27;11.38;;;11.40;99.90;;;;;;5053987;28;20558;-78
2023/05/14 01:11:27;;;;;;;12.52;9.43;;;11.40;99.90;;;;;;5085240;28;20068;-78
2023/05/14 01:14:16;;;;;;;18.52;10.43;;;11.40;99.90;;;;;;5087907;28;20051;-78
2023/05/14 01:16:43;;;;;;;15.65;10.43;;;11.30;99.90;;;;;;5088199;28;20491;-78
2023/05/14 01:19:39;;;;;;;13.35;10.80;;;11.30;99.90;;;;;;5054190;28;20071;-78
2023/05/14 01:22:05;;;;;;;16.23;10.55;;;11.30;99.90;;;;;;5061757;28;20135;-78
2023/05/14 01:24:30;;;;;;;18.60;11.13;;;11.30;99.90;;;;;;5054837;28;20138;-78
2023/05/14 01:27:13;;;;;;;18.60;10.75;;;11.20;99.90;;;;;;5070663;28;20048;-78
2023/05/14 01:29:45;;;;;;;16.80;11.20;;;11.20;99.90;;;;;;5088627;28;20043;-78
2023/05/14 01:32:12;;;;;;;;;;;11.20;99.90;;;;;;5072715;28;20155;-78
2023/05/14 01:34:39;;;;;;;14.50;10.30;;;11.10;99.90;;;;;;5087185;28;19924;-78
2023/05/14 01:37:05;;;;;;;15.65;10.63;;;11.10;99.90;;;;;;5090881;28;20043;-78
2023/05/14 01:39:32;;;;;;;17.90;11.32;;;11.10;99.90;;;;;;5087537;28;20028;-78
2023/05/14 01:41:59;;;;;;;18.70;11.52;;;11.00;99.90;;;;;;5090558;28;20070;-78
2023/05/14 01:44:25;;;;;;;16.27;11.07;;;11.00;99.90;;;;;;5089076;28;20054;-78
2023/05/14 01:46:50;;;;;;;17.65;10.95;;;10.90;99.90;;;;;;5070881;28;20418;-78
2023/05/14 01:49:17;;;;;;;17.98;11.48;;;10.90;99.90;;;;;;5084117;28;20052;-78
2023/05/14 01:51:43;;;;;;;18.20;11.15;;;10.80;99.90;;;;;;5056057;28;20068;-78
2023/05/14 01:54:08;;;;;;;16.45;10.75;;;10.80;99.90;;;;;;5070948;28;20498;-78
2023/05/14 01:56:37;;;;;;;17.60;11.52;;;10.80;99.90;;;;;;5087662;28;20052;-78
2023/05/14 01:59:02;;;;;;;16.27;11.20;;;10.80;99.90;;;;;;5070550;28;20044;-78
2023/05/14 02:01:28;;;;;;;14.10;10.77;;;10.80;99.90;;;;;;5088504;28;20055;-78
2023/05/14 02:03:53;;;;;;;21.35;11.18;;;10.70;99.90;;;;;;5070162;28;20048;-78
2023/05/14 02:06:19;;;;;;;19.50;11.32;;;10.70;99.90;;;;;;5090015;28;20058;-78
2023/05/14 02:08:44;;;;;;;17.80;12.27;;;10.70;99.90;;;;;;5087627;28;20043;-78
2023/05/14 02:11:10;;;;;;;15.77;11.30;;;10.60;99.90;;;;;;5088922;28;20474;-78
2023/05/14 02:13:36;;;;;;;15.98;11.57;;;10.70;99.90;;;;;;5088562;28;20067;-78
2023/05/14 02:16:01;;;;;;;16.48;11.63;;;10.70;99.90;;;;;;5071307;28;20147;-78
2023/05/14 02:18:27;;;;;;;17.42;11.20;;;10.70;99.90;;;;;;5087712;28;20113;-78
2023/05/14 02:20:52;;;;;;;17.27;12.18;;;11.00;99.90;;;;;;5070425;28;20127;-78
2023/05/14 02:23:18;;;;;;;16.63;12.10;;;10.70;99.90;;;;;;5066899;28;20040;-78
2023/05/14 02:25:44;;;;;;;22.83;11.88;;;10.80;99.90;;;;;;5067468;28;20147;-78
2023/05/14 02:28:09;;;;;;;18.63;11.80;;;10.80;99.90;;;;;;5087641;28;20083;-78
2023/05/14 02:30:35;;;;;;;16.23;11.98;;;10.80;99.90;;;;;;5084907;28;20044;-78
2023/05/14 02:33:00;;;;;;;16.30;12.27;;;10.80;99.90;;;;;;5085880;28;20043;-78
2023/05/14 02:35:26;;;;;;;17.95;11.85;;;10.70;99.90;;;;;;5052428;28;20354;-78
2023/05/14 02:37:52;;;;;;;17.52;11.70;;;10.80;99.90;;;;;;5067497;28;20643;-78
2023/05/14 02:40:17;;;;;;;17.55;11.70;;;10.70;99.90;;;;;;5068768;28;20051;-78
2023/05/14 02:42:43;;;;;;;16.83;11.98;;;10.70;99.90;;;;;;5067450;28;20465;-78
2023/05/14 02:45:09;;;;;;;16.50;11.95;;;10.70;99.90;;;;;;5068661;28;20509;-78
2023/05/14 02:47:35;;;;;;;19.17;12.05;;;10.70;99.90;;;;;;5085855;28;20056;-78
2023/05/14 02:50:00;;;;;;;16.83;11.50;;;10.70;99.90;;;;;;5083682;28;20056;-78
2023/05/14 02:52:26;;;;;;;18.00;11.13;;;10.70;99.90;;;;;;5087818;28;20382;-78
2023/05/14 02:54:51;;;;;;;16.25;11.35;;;10.70;99.90;;;;;;5079042;28;20051;-78
2023/05/14 02:57:18;;;;;;;15.07;11.57;;;10.60;99.90;;;;;;5086379;28;20044;-78
2023/05/14 02:59:43;;;;;;;18.65;12.30;;;10.70;99.90;;;;;;5084642;28;20046;-78
2023/05/14 03:02:09;;;;;;;17.05;11.70;;;10.60;99.90;;;;;;5087479;28;20123;-78
2023/05/14 03:04:35;;;;;;;17.80;11.32;;;10.50;99.90;;;;;;5086028;28;20036;-78
2023/05/14 03:07:00;;;;;;;18.65;12.98;;;10.50;99.90;;;;;;5048781;28;20074;-78
2023/05/14 03:09:26;;;;;;;19.50;12.00;;;10.50;99.90;;;;;;5064807;28;20055;-78
2023/05/14 03:11:51;;;;;;;16.35;12.65;;;10.50;99.90;;;;;;5085592;28;20048;-78
2023/05/14 03:14:17;;;;;;;17.95;11.85;;;10.70;99.90;;;;;;5083599;28;20056;-78
2023/05/14 03:16:42;;;;;;;19.15;12.15;;;10.50;99.90;;;;;;5068267;28;20040;-78
2023/05/14 03:19:08;;;;;;;17.38;11.57;;;10.30;99.90;;;;;;5084902;28;20075;-78
2023/05/14 03:21:34;;;;;;;17.55;12.52;;;10.50;99.90;;;;;;5067641;28;20040;-78
2023/05/14 03:23:59;;;;;;;16.42;11.95;;;10.50;99.90;;;;;;5082898;28;20471;-78
2023/05/14 03:26:25;;;;;;;14.70;11.52;;;10.50;99.90;;;;;;5084028;28;20134;-78
2023/05/14 03:28:51;;;;;;;19.88;11.88;;;10.40;99.90;;;;;;5083663;28;20498;-78
2023/05/14 03:31:17;;;;;;;16.98;11.82;;;10.40;99.90;;;;;;5086273;28;20127;-78
2023/05/14 03:33:42;;;;;;;18.20;11.48;;;10.40;99.90;;;;;;5067058;28;20044;-78
2023/05/14 03:36:08;;;;;;;18.77;11.65;;;10.40;99.90;;;;;;5049953;28;20044;-78
2023/05/14 03:38:34;;;;;;;17.00;11.32;;;10.40;99.90;;;;;;5064557;28;20032;-78
2023/05/14 03:40:59;;;;;;;15.40;11.55;;;10.40;99.90;;;;;;5083406;28;20036;-78
2023/05/14 03:43:25;;;;;;;18.98;11.88;;;10.40;99.90;;;;;;5085896;28;20044;-78
2023/05/14 03:45:51;;;;;;;16.30;11.48;;;10.30;99.90;;;;;;5085450;28;20363;-78
2023/05/14 03:48:18;;;;;;;16.13;10.70;;;10.30;99.90;;;;;;5083019;28;20060;-78
2023/05/14 03:50:44;;;;;;;17.17;11.65;;;10.30;99.90;;;;;;5065416;28;20044;-78
2023/05/14 03:53:09;;;;;;;16.65;11.38;;;10.30;99.90;;;;;;5049915;28;20048;-78
2023/05/14 03:55:35;;;;;;;16.92;11.55;;;10.30;99.90;;;;;;5080759;28;20047;-78
2023/05/14 03:58:01;;;;;;;16.98;12.13;;;10.30;99.90;;;;;;5067419;28;20134;-78
2023/05/14 04:00:27;;;;;;;18.27;11.68;;;10.30;99.90;;;;;;5083431;28;21220;-78
2023/05/14 04:02:53;;;;;;;19.55;10.93;;;10.30;99.90;;;;;;5051252;28;20051;-78
2023/05/14 04:05:19;;;;;;;16.70;11.32;;;10.30;99.90;;;;;;5084706;28;20039;-78
2023/05/14 04:07:45;;;;;;;14.27;11.05;;;10.30;99.90;;;;;;5068389;28;20040;-78
2023/05/14 04:10:11;;;;;;;15.43;11.10;;;10.30;99.90;;;;;;5084873;28;20059;-78
2023/05/14 04:12:37;;;;;;;16.40;11.52;;;10.30;99.90;;;;;;5067142;28;20060;-78
2023/05/14 04:15:04;;;;;;;14.88;11.45;;;10.30;99.90;;;;;;5065496;28;20403;-78
2023/05/14 04:17:29;;;;;;;16.05;12.15;;;10.40;99.90;;;;;;5084141;28;20094;-78
2023/05/14 04:19:55;;;;;;;16.63;12.00;;;10.40;99.90;;;;;;5065320;28;20085;-78
2023/05/14 04:22:20;;;;;;;15.35;11.90;;;10.40;99.90;;;;;;5065166;28;20040;-78
2023/05/14 04:24:46;;;;;;;16.60;11.52;;;10.50;99.90;;;;;;5063369;28;20768;-78
2023/05/14 04:27:19;;;;;;;13.75;10.73;;;10.50;99.90;;;;;;5065836;28;20569;-78
2023/05/14 04:29:45;;;;;;;16.42;11.13;;;10.70;99.90;;;;;;5066417;28;20075;-78
2023/05/14 04:32:11;;;;;;;20.33;11.77;;;10.60;99.90;;;;;;5066777;28;20447;-78
2023/05/14 04:34:37;;;;;;;15.45;11.40;;;10.60;99.90;;;;;;5066366;28;20104;-78
2023/05/14 04:37:03;;;;;;;15.05;11.65;;;10.50;99.90;;;;;;5052831;28;20073;-78
2023/05/14 04:39:28;;;;;;;17.85;11.32;;;10.70;99.90;;;;;;5048924;28;20052;-78
2023/05/14 04:41:54;;;;;;;15.98;11.30;;;10.80;99.90;;;;;;5067276;28;20126;-78
2023/05/14 04:44:20;;;;;;;16.38;10.90;;;10.80;99.90;;;;;;5082667;28;20401;-78
2023/05/14 04:46:45;;;;;;;17.98;11.70;;;10.80;99.90;;;;;;5083250;28;20105;-78
2023/05/14 04:49:11;;;;;;;18.08;11.55;;;10.90;99.90;;;;;;5066871;28;20048;-78
2023/05/14 04:51:36;;;;;;;15.65;11.23;;;11.00;99.90;;;;;;5064864;28;20090;-78
2023/05/14 04:54:02;;;;;;;15.65;10.25;;;11.10;99.90;;;;;;5082748;28;20067;-78
2023/05/14 04:56:28;;;;;;;14.38;10.25;;;11.10;99.90;;;;;;5066591;28;20395;-78
2023/05/14 04:58:53;;;;;;;12.75;10.45;;;11.10;99.90;;;;;;5065641;28;20052;-78
2023/05/14 05:01:19;;;;;;;16.15;10.45;;;11.10;99.90;;;;;;5083631;28;20122;-78
2023/05/14 05:03:45;;;;;;;17.17;10.68;;;11.20;99.90;;;;;;5084659;28;20110;-79
2023/05/14 05:06:11;;;;;;;12.55;10.35;;;11.20;99.90;;;;;;5065964;28;20506;-79
2023/05/14 05:08:36;;;;;;;15.32;10.23;;;11.30;99.90;;;;;;5084299;28;20158;-79
2023/05/14 05:11:02;;;;;;;14.63;10.63;;;11.40;99.90;;;;;;5065865;28;20048;-78
2023/05/14 05:13:27;;;;;;;13.55;9.63;;;11.40;99.90;;;;;;5087693;28;20401;-78
2023/05/14 05:15:53;;;;;;;16.88;10.65;;;11.50;99.90;;;;;;5068760;28;20055;-79
2023/05/14 05:18:19;;;;;;;13.00;9.70;;;11.50;99.90;;;;;;5087941;28;20122;-79
2023/05/14 05:20:44;;;;;;;14.43;10.05;;;11.60;99.90;;;;;;5053758;28;20052;-79
2023/05/14 05:23:10;;;;;;;18.52;9.98;;;11.60;99.90;;;;;;5067220;28;20094;-80
2023/05/14 05:25:35;;;;;;;15.27;9.73;;;11.70;99.90;;;;;;5090569;28;20050;-80
2023/05/14 05:28:01;;;;;;;15.43;10.23;;;11.70;99.90;;;;;;5054818;28;20039;-80
2023/05/14 05:30:27;;;;;;;12.95;9.20;;;11.80;99.90;;;;;;5088972;28;20043;-80
2023/05/14 05:32:52;;;;;;;17.98;10.10;;;11.80;99.90;;;;;;5065608;28;20114;-80
2023/05/14 05:35:18;;;;;;;15.77;9.88;;;11.90;99.90;;;;;;5050009;28;20788;-80
2023/05/14 05:37:44;;;;;;;14.00;9.68;;;12.10;99.90;;;;;;5067443;28;21562;-80
2023/05/14 05:40:10;;;;;;;16.63;9.82;;;12.40;99.90;;;;;;5068910;28;20048;-80
2023/05/14 05:42:35;;;;;;;14.68;9.65;;;12.80;99.90;;;;;;5061416;28;20772;-80
2023/05/14 05:45:01;;;;;;;12.40;9.77;;;13.10;99.90;;;;;;5086268;28;20044;-79
2023/05/14 05:47:27;;;;;;;12.70;9.07;;;13.10;99.90;;;;;;5054945;28;20056;-80
2023/05/14 05:49:52;;;;;;;14.10;9.77;;;13.10;99.90;;;;;;5070577;28;20048;-79
2023/05/14 05:52:18;;;;;;;11.73;9.27;;;13.00;99.90;;;;;;5090016;28;20108;-79
2023/05/14 05:54:44;;;;;;;12.35;9.35;;;13.10;99.90;;;;;;5055019;28;20202;-84
2023/05/14 05:57:10;;;;;;;16.50;9.52;;;13.30;99.90;;;;;;5054902;28;20089;-84
2023/05/14 05:59:35;;;;;;;12.32;8.75;;;13.80;99.90;;;;;;5071859;28;20047;-84
2023/05/14 06:02:01;;;;;;;13.73;8.82;;;14.50;99.90;;;;;;5068830;28;20149;-83
2023/05/14 06:04:26;;;;;;;9.60;8.57;;;15.10;99.90;;;;;;5069346;28;20040;-84
2023/05/14 06:06:52;;;;;;;14.10;9.27;;;15.60;99.90;;;;;;5054230;28;20040;-83
2023/05/14 06:09:18;;;;;;;14.88;8.55;;;16.00;99.90;;;;;;5068175;28;20040;-84
2023/05/14 06:11:44;;;;;;;11.77;8.27;;;16.30;99.90;;;;;;5072327;28;20044;-84
2023/05/14 06:14:09;;;;;;;13.95;8.88;;;16.80;99.90;;;;;;5071620;28;20426;-84
2023/05/14 06:16:35;;;;;;;10.32;8.70;;;17.10;99.90;;;;;;5053501;28;20044;-84
2023/05/14 06:19:00;;;;;;;11.48;8.23;;;17.40;99.90;;;;;;5067721;28;20055;-84
2023/05/14 06:21:26;;;;;;;13.30;8.68;;;17.30;99.90;;;;;;5070304;28;20055;-84
2023/05/14 06:23:52;;;;;;;15.57;8.30;;;17.20;99.90;;;;;;5070637;28;20059;-84
2023/05/14 06:26:17;;;;;;;12.75;7.97;;;16.80;99.90;;;;;;5070960;28;20069;-83
2023/05/14 06:28:43;;;;;;;12.82;7.82;;;16.50;99.90;;;;;;5067404;28;20042;-84
2023/05/14 06:31:09;;;;;;;13.23;7.93;;;16.30;99.90;;;;;;5071587;28;20040;-84
2023/05/14 06:33:35;;;;;;;13.18;7.82;;;16.00;99.90;;;;;;5071365;28;20047;-86
2023/05/14 06:36:03;;;;;;;12.50;8.30;;;15.70;99.90;;;;;;5071034;28;20560;-84
2023/05/14 06:38:29;;;;;;;10.90;7.97;;;15.50;99.90;;;;;;5070750;28;20044;-84
2023/05/14 06:40:55;;;;;;;12.68;8.65;;;15.50;99.90;;;;;;5071093;28;20047;-84
2023/05/14 06:43:20;;;;;;;11.13;7.95;;;15.50;99.90;;;;;;5070961;28;20476;-84
2023/05/14 06:45:50;;;;;;;10.90;8.40;;;15.60;99.90;;;;;;5070293;28;20044;-84
2023/05/14 06:48:20;;;;;;;19.40;9.02;;;15.70;99.90;;;;;;5070320;28;20052;-84
2023/05/14 06:50:47;;;;;;;11.10;8.70;;;15.90;99.90;;;;;;5070757;28;20137;-85
2023/05/14 06:53:13;;;;;;;9.88;8.32;;;16.10;99.90;;;;;;5070591;28;20073;-85
2023/05/14 06:55:38;;;;;;;10.80;7.88;;;16.20;99.90;;;;;;5053869;28;20543;-83
2023/05/14 06:58:08;;;;;;;10.30;7.70;;;16.40;99.90;;;;;;5053383;28;20105;-83
2023/05/14 07:00:34;;;;;;;11.27;8.13;;;16.60;99.90;;;;;;5088697;28;20047;-83
2023/05/14 07:03:00;;;;;;;9.70;7.65;;;16.70;99.90;;;;;;5086243;28;20040;-83
2023/05/14 07:05:28;;;;;;;16.38;8.05;;;16.90;99.90;;;;;;5068876;28;20123;-84
2023/05/14 07:07:54;;;;;;;12.27;7.90;;;17.00;99.90;;;;;;5086284;28;20182;-84
2023/05/14 07:10:19;;;;;;;9.00;7.75;;;17.00;99.90;;;;;;5086752;28;20040;-84
2023/05/14 07:12:50;;;;;;;12.93;7.63;;;17.20;99.90;;;;;;5068653;28;20044;-84
2023/05/14 07:15:16;;;;;;;9.75;8.27;;;17.50;99.90;;;;;;5087283;28;20184;-84
2023/05/14 07:17:42;;;;;;;8.50;7.38;;;17.50;99.90;;;;;;5086644;28;20510;-84
2023/05/14 07:20:08;;;;;;;10.82;7.43;;;17.40;99.90;;;;;;5067870;28;20172;-84
2023/05/14 07:22:33;;;;;;;11.98;7.10;;;17.50;99.90;;;;;;5068472;28;20048;-83
2023/05/14 07:25:02;;;;;;;11.15;7.85;;;17.60;99.90;;;;;;5067963;28;20529;-83
2023/05/14 07:27:27;;;;;;;10.65;6.80;;;17.70;99.90;;;;;;5067693;28;20044;-84
2023/05/14 07:29:53;;;;;;;9.93;6.85;;;17.60;99.90;;;;;;5051467;28;20079;-82
2023/05/14 07:32:18;;;;;;;14.63;7.05;;;17.90;99.90;;;;;;5068509;28;20028;-81
2023/05/14 07:34:44;;;;;;;8.65;6.78;;;18.00;99.90;;;;;;5069454;28;20461;-81
2023/05/14 07:37:09;;;;;;;9.57;6.20;;;18.00;99.90;;;;;;5069072;28;20123;-81
2023/05/14 07:39:35;;;;;;;12.68;6.82;;;18.40;99.90;;;;;;5052769;28;20271;-81
2023/05/14 07:42:01;;;;;;;11.68;6.68;;;18.20;99.90;;;;;;5087167;28;20040;-81
2023/05/14 07:44:28;;;;;;;7.53;6.80;;;18.40;99.90;;;;;;5069192;28;20163;-81
2023/05/14 07:46:54;;;;;;;12.95;6.63;;;18.40;99.90;;;;;;5069216;28;20127;-81
2023/05/14 07:49:20;;;;;;;10.88;6.72;;;18.40;99.90;;;;;;5069830;28;20126;-80
2023/05/14 07:51:45;;;;;;;11.43;6.60;;;18.40;99.90;;;;;;5088229;28;20040;-81
2023/05/14 07:54:11;;;;;;;10.82;6.32;;;18.40;99.90;;;;;;5052448;28;20035;-83
2023/05/14 07:56:40;;;;;;;9.13;6.05;;;18.40;99.90;;;;;;5070066;28;20048;-83
2023/05/14 07:59:06;;;;;;;8.48;6.25;;;18.40;99.90;;;;;;5052832;28;20043;-83
2023/05/14 08:01:31;;;;;;;8.98;6.50;;;18.40;99.90;;;;;;5069251;28;20093;-82
2023/05/14 08:03:57;;;;;;;7.93;5.90;;;18.60;99.90;;;;;;5070327;28;20095;-82
2023/05/14 08:06:26;;;;;;;10.20;5.93;;;18.60;99.90;;;;;;5053008;28;20048;-82
2023/05/14 08:08:52;;;;;;;9.05;6.40;;;18.80;99.90;;;;;;5086768;28;20052;-82
2023/05/14 08:11:17;;;;;;;8.38;5.80;;;18.90;99.90;;;;;;5069515;28;20147;-83
2023/05/14 08:13:43;;;;;;;8.80;5.53;;;19.10;99.90;;;;;;5052213;28;20082;-82
2023/05/14 08:16:09;;;;;;;8.20;5.40;;;19.20;99.90;;;;;;5052347;28;20044;-82
2023/05/14 08:18:35;;;;;;;8.52;5.43;;;19.00;99.90;;;;;;5069727;28;20123;-82
2023/05/14 08:21:00;;;;;;;8.60;5.60;;;19.10;99.90;;;;;;5069735;28;20181;-82
2023/05/14 08:23:26;;;;;;;9.63;5.53;;;19.30;99.90;;;;;;5066018;28;20053;-82
2023/05/14 08:25:54;;;;;;;8.45;5.82;;;19.40;99.90;;;;;;5068827;28;20039;-82
2023/05/14 08:28:19;;;;;;;10.23;5.90;;;19.50;99.90;;;;;;5068409;28;20040;-82
2023/05/14 08:30:45;;;;;;;8.02;5.30;;;20.00;99.90;;;;;;5069056;28;20363;-86
2023/05/14 08:33:10;;;;;;;10.82;6.13;;;19.70;99.90;;;;;;5068969;28;20067;-82
2023/05/14 08:35:36;;;;;;;8.70;5.97;;;19.70;99.90;;;;;;5069423;28;20051;-82
2023/05/14 08:38:02;;;;;;;8.13;5.85;;;19.70;99.90;;;;;;5069119;28;20117;-82
2023/05/14 08:40:28;;;;;;;8.85;5.70;;;19.80;99.90;;;;;;5069470;28;20067;-84
2023/05/14 08:42:59;;;;;;;8.10;5.45;;;19.90;99.90;;;;;;5086516;28;20047;-83
2023/05/14 08:45:32;;;;;;;9.13;5.57;;;20.00;99.90;;;;;;5052520;28;20119;-84
2023/05/14 08:48:00;;;;;;;8.98;5.53;;;20.00;99.90;;;;;;5052780;28;20407;-83
2023/05/14 08:50:26;;;;;;;6.32;5.10;;;20.00;99.90;;;;;;5053337;28;20045;-84
2023/05/14 08:52:52;;;;;;;6.85;4.95;;;19.80;99.90;;;;;;5070399;28;20044;-84
2023/05/14 08:55:18;;;;;;;8.85;4.88;;;19.70;99.90;;;;;;5036577;28;20526;-83
2023/05/14 08:57:45;;;;;;;8.70;5.10;;;19.60;99.90;;;;;;5053443;28;20495;-83
2023/05/14 09:00:11;;;;;;;6.18;4.68;;;19.70;99.90;;;;;;5067490;28;20052;-84
2023/05/14 09:02:39;;;;;;;6.57;4.45;;;19.80;99.90;;;;;;5072339;28;20051;-84
2023/05/14 09:05:09;;;;;;;7.50;4.72;;;20.20;99.90;;;;;;5056194;28;20055;-84
2023/05/14 09:07:34;;;;;;;7.63;5.28;;;20.20;99.90;;;;;;5072797;28;20044;-83
2023/05/14 09:10:01;;;;;;;8.32;4.72;;;20.30;99.90;;;;;;5072675;28;20184;-82
2023/05/14 09:12:27;;;;;;;8.38;4.75;;;20.30;99.90;;;;;;5072493;28;20048;-83
2023/05/14 09:14:52;;;;;;;8.20;5.20;;;20.40;99.90;;;;;;5071968;28;20348;-83
2023/05/14 09:17:18;;;;;;;8.35;5.30;;;20.30;99.90;;;;;;5072288;28;20036;-84
2023/05/14 09:19:48;;;;;;;9.60;4.82;;;20.50;99.90;;;;;;5072755;28;20142;-83
2023/05/14 09:22:16;;;;;;;8.48;5.25;;;20.50;99.90;;;;;;5072027;28;20048;-84
2023/05/14 09:24:42;;;;;;;7.60;4.93;;;20.40;99.90;;;;;;5072016;28;20127;-83
2023/05/14 09:27:13;;;;;;;9.07;5.00;;;20.50;99.90;;;;;;5072600;28;20173;-83
2023/05/14 09:29:39;;;;;;;8.60;5.78;;;20.30;99.90;;;;;;5055896;28;20147;-83
2023/05/14 09:32:06;;;;;;;7.80;5.47;;;20.50;99.90;;;;;;5071827;28;20062;-82
2023/05/14 09:34:33;;;;;;;7.30;4.72;;;20.30;99.90;;;;;;5090208;28;20052;-83
2023/05/14 09:37:03;;;;;;;8.93;5.30;;;20.40;99.90;;;;;;5072607;28;20079;-84
2023/05/14 09:39:30;;;;;;;7.43;4.85;;;20.50;99.90;;;;;;5070763;28;20052;-84
2023/05/14 09:41:56;;;;;;;9.65;5.10;;;20.60;99.90;;;;;;5071767;28;20051;-84
2023/05/14 09:44:23;;;;;;;9.98;5.60;;;20.80;99.90;;;;;;5071305;28;20288;-80
2023/05/14 09:46:49;;;;;;;11.23;5.32;;;20.80;99.90;;;;;;5088256;28;20082;-80
2023/05/14 09:49:15;;;;;;;7.45;5.03;;;20.50;99.90;;;;;;5090390;28;20048;-80
2023/05/14 09:51:40;;;;;;;7.72;5.40;;;20.60;99.90;;;;;;5070641;28;20410;-80
2023/05/14 09:54:07;;;;;;;7.55;5.53;;;20.50;99.90;;;;;;5050592;28;20036;-80
2023/05/14 09:56:34;;;;;;;8.52;5.18;;;20.50;99.90;;;;;;5068999;28;20055;-80
2023/05/14 09:59:00;;;;;;;7.45;5.07;;;20.60;99.90;;;;;;5052074;28;20178;-80
2023/05/14 10:01:27;;;;;;;7.00;5.22;;;20.60;99.90;;;;;;5070279;28;20119;-79
2023/05/14 10:03:54;;;;;;;9.18;6.20;;;20.80;99.90;;;;;;5036567;28;20610;-79
2023/05/14 10:06:24;;;;;;;8.40;4.95;;;20.80;99.90;;;;;;5053168;28;20807;-79
2023/05/14 10:08:54;;;;;;;8.55;5.38;;;20.90;99.90;;;;;;5053586;28;20051;-79
2023/05/14 10:11:27;;;;;;;11.55;6.22;;;21.00;99.90;;;;;;5069396;28;20036;-79
2023/05/14 10:14:04;;;;;;;8.48;5.45;;;21.20;98.80;;;;;;5052288;28;20376;-79
2023/05/14 10:16:36;;;;;;;7.72;5.22;;;21.20;97.80;;;;;;5070088;28;20088;-79
2023/05/14 10:19:09;;;;;;;9.45;4.95;;;21.30;97.10;;;;;;5051958;28;20056;-79
2023/05/14 10:21:36;;;;;;;8.55;5.00;;;21.20;92.50;;;;;;5050376;28;20040;-79
2023/05/14 10:24:03;;;;;;;9.43;4.82;;;21.10;93.90;;;;;;5064780;28;20230;-80
2023/05/14 10:26:31;;;;;;;7.68;4.40;;;21.30;93.60;;;;;;5038460;28;20048;-81
2023/05/14 10:28:57;;;;;;;8.50;5.57;;;21.50;92.10;;;;;;5073310;28;20053;-81
2023/05/14 10:31:45;;;;;;;7.35;5.00;;;21.60;91.40;;;;;;5074906;28;20072;-81
2023/05/14 10:34:32;;;;;;;5.78;4.30;;;21.60;80.40;;;;;;5051392;28;20044;-80
2023/05/14 10:37:00;;;;;;;7.78;4.10;;;21.60;81.90;;;;;;5083440;28;20048;-80
2023/05/14 10:39:48;;;;;;;6.68;3.80;;;21.80;84.90;;;;;;5078127;28;20119;-81
2023/05/14 10:42:38;;;;;;;7.22;4.50;;;22.00;77.10;;;;;;5065924;28;20043;-84
2023/05/14 10:45:11;;;;;;;7.22;4.28;;;22.10;78.50;;;;;;5062412;28;20090;-81
2023/05/14 10:47:39;;;;;;;7.55;4.15;;;22.30;78.80;;;;;;5058931;28;20048;-82
2023/05/14 10:50:07;;;;;;;9.52;5.20;;;22.40;77.30;;;;;;5079292;28;20036;-79
2023/05/14 10:52:34;;;;;;;4.13;3.72;;;22.40;75.80;;;;;;5081292;28;20139;-81
2023/05/14 10:55:08;;;;;;;7.47;3.70;;;22.50;74.30;;;;;;5060223;28;20086;-80
2023/05/14 10:57:40;;;;;;;5.80;4.82;;;22.60;70.90;;;;;;5089374;28;20454;-81
2023/05/14 11:00:07;;;;;;;7.57;4.88;;;22.60;71.30;;;;;;5070227;28;20091;-80
2023/05/14 11:02:38;;;;;;;7.82;4.90;;;22.70;72.40;;;;;;5089142;28;20054;-80
2023/05/14 11:05:21;;;;;;;7.28;4.97;;;22.80;71.50;;;;;;5088749;28;20043;-80
2023/05/14 11:07:48;;;;;;;9.50;3.63;;;22.90;71.90;;;;;;5088062;28;20497;-79
2023/05/14 11:10:19;;;;;;;4.97;3.72;;;23.00;72.30;;;;;;5069808;28;20060;-80
2023/05/14 11:12:46;;;;;;;6.32;4.35;;;23.10;70.30;;;;;;5088086;28;20078;-81
2023/05/14 11:15:17;;;;;;;5.03;4.03;;;23.10;68.90;;;;;;5053985;28;20055;-81
2023/05/14 11:17:45;;;;;;;6.00;4.32;;;23.20;70.10;;;;;;5100725;28;20535;-80
2023/05/14 11:20:12;;;;;;;5.68;4.10;;;23.20;69.00;;;;;;5090505;28;20044;-80
2023/05/14 11:22:40;;;;;;;4.88;3.53;;;23.10;67.10;;;;;;5054131;28;20197;-80
2023/05/14 11:25:07;;;;;;;5.82;3.97;;;22.80;65.00;;;;;;5088109;28;20054;-79
2023/05/14 11:27:34;;;;;;;4.65;3.67;;;22.80;65.80;;;;;;5086650;28;20067;-77
2023/05/14 11:30:01;;;;;;;6.13;3.47;;;23.00;65.10;;;;;;5087131;28;20144;-77
2023/05/14 11:32:27;;;;;;;7.00;3.88;;;23.10;64.80;;;;;;5053710;28;20040;-77
2023/05/14 11:34:52;;;;;;;7.20;3.42;;;23.20;63.90;;;;;;5070489;28;20106;-78
2023/05/14 11:37:18;;;;;;;5.22;3.75;;;23.30;62.60;;;;;;5089156;28;20040;-78
2023/05/14 11:39:54;;;;;;;6.63;4.07;;;23.30;62.30;;;;;;5069876;28;20152;-77
2023/05/14 11:42:21;;;;;;;5.40;3.67;;;23.30;62.00;;;;;;5087802;28;20108;-78
2023/05/14 11:44:48;;;;;;;3.80;3.50;;;23.20;62.50;;;;;;5070002;28;20059;-78
2023/05/14 11:47:14;;;;;;;4.35;3.95;;;23.20;62.50;;;;;;5087901;28;20047;-77
2023/05/14 11:49:43;;;;;;;3.85;3.50;;;23.20;62.70;;;;;;5086155;28;20113;-78
2023/05/14 11:52:11;;;;;;;3.47;3.17;;;23.20;62.40;;;;;;5069300;28;20047;-78
2023/05/14 11:54:37;;;;;;;6.07;3.70;;;23.20;61.10;;;;;;5081147;28;20505;-78
2023/05/14 11:57:08;;;;;;;5.32;3.38;;;23.40;60.30;;;;;;5065027;28;20040;-77
2023/05/14 11:59:34;;;;;;;7.33;3.97;;;23.50;59.30;;;;;;5067507;28;20060;-78
2023/05/14 12:02:01;;;;;;;4.75;3.22;;;23.60;59.10;;;;;;5066235;28;20044;-78
2023/05/14 12:04:28;;;;;;;3.67;3.22;;;23.70;58.40;;;;;;5066891;28;20387;-78
2023/05/14 12:06:56;;;;;;;3.53;3.20;;;23.90;57.20;;;;;;5050899;28;20089;-77
2023/05/14 12:09:22;;;;;;;5.47;3.42;;;23.90;56.10;;;;;;5068781;28;20515;-79
2023/05/14 12:11:49;;;;;;;4.05;3.50;;;23.90;55.90;;;;;;5086599;28;20154;-78
2023/05/14 12:14:22;;;;;;;5.78;3.83;;;24.00;55.60;;;;;;5062660;28;20049;-78
2023/05/14 12:16:48;;;;;;;4.13;2.83;;;23.80;54.10;;;;;;5068445;28;20058;-78
2023/05/14 12:19:16;;;;;;;5.03;3.17;;;23.90;55.50;;;;;;5087197;28;20036;-78
2023/05/14 12:21:43;;;;;;;4.88;3.30;;;23.80;55.00;;;;;;5086204;28;20498;-79
2023/05/14 12:24:11;;;;;;;3.83;3.17;;;23.70;53.90;;;;;;5087301;28;20505;-78
2023/05/14 12:26:39;;;;;;;4.85;3.95;;;23.40;54.10;;;;;;5052524;28;20044;-78
2023/05/14 12:29:05;;;;;;;5.38;3.92;;;23.30;53.90;;;;;;5087523;28;20052;-78
2023/05/14 12:31:33;;;;;;;5.88;3.22;;;23.40;54.40;;;;;;5068805;28;20047;-78
2023/05/14 12:33:59;;;;;;;7.47;3.95;;;23.40;54.10;;;;;;5086748;28;20044;-78
2023/05/14 12:36:25;;;;;;;3.65;3.15;;;23.60;53.90;;;;;;5069527;28;20043;-78